Time;durP1;ratioP1;P1;durP2;ratioP2;P2;SDS_P1;SDS_P2;PMS_P1;PMS_P2;Temp;Humidity;BMP_temperature;BMP_pressure;BME280_temperature;BME280_humidity;BME280_pressure;Samples;Min_cycle;Max_cycle;Signal;HPM_P1;HPM_P2
2021/01/30 00:00:26;;;;;;;3.60;1.50;;;0.40;99.90;;;;;;4910760;29;20115;-71
2021/01/30 00:02:52;;;;;;;2.45;1.50;;;0.40;99.90;;;;;;4927624;29;20555;-72
2021/01/30 00:05:19;;;;;;;3.97;1.73;;;0.30;99.90;;;;;;4927357;29;20467;-71
2021/01/30 00:07:45;;;;;;;4.03;1.70;;;0.30;99.90;;;;;;4927648;29;20072;-72
2021/01/30 00:10:12;;;;;;;2.22;1.50;;;0.30;99.90;;;;;;4927295;29;20040;-71
2021/01/30 00:12:37;;;;;;;2.60;1.02;;;0.30;99.90;;;;;;4927565;29;20036;-72
2021/01/30 00:15:04;;;;;;;3.28;1.35;;;0.30;99.90;;;;;;4927807;29;20032;-71
2021/01/30 00:17:29;;;;;;;4.50;2.42;;;0.30;99.90;;;;;;4927424;29;20033;-72
2021/01/30 00:19:55;;;;;;;3.38;1.65;;;0.30;99.90;;;;;;4928007;29;20032;-71
2021/01/30 00:22:20;;;;;;;5.90;1.75;;;0.30;99.90;;;;;;4927497;29;20119;-71
2021/01/30 00:24:48;;;;;;;4.32;1.77;;;0.30;99.90;;;;;;4927211;29;20092;-71
2021/01/30 00:27:17;;;;;;;3.00;1.42;;;0.30;99.90;;;;;;4927515;29;20031;-71
2021/01/30 00:29:43;;;;;;;4.47;2.22;;;0.30;99.90;;;;;;4927501;29;20052;-71
2021/01/30 00:32:10;;;;;;;6.40;1.35;;;0.30;99.90;;;;;;4928456;29;20020;-71
2021/01/30 00:34:38;;;;;;;3.90;1.88;;;0.30;99.90;;;;;;4914192;29;20118;-71
2021/01/30 00:37:16;;;;;;;3.90;2.13;;;0.30;99.90;;;;;;4931558;29;20024;-72
2021/01/30 00:39:42;;;;;;;4.15;1.83;;;0.30;99.90;;;;;;4930788;29;20036;-71
2021/01/30 00:42:09;;;;;;;4.10;2.00;;;0.40;99.90;;;;;;4931169;29;20099;-71
2021/01/30 00:44:35;;;;;;;4.22;2.03;;;0.40;99.90;;;;;;4914174;29;20036;-72
2021/01/30 00:47:01;;;;;;;3.15;1.65;;;0.40;99.90;;;;;;4930794;29;20043;-71
2021/01/30 00:49:27;;;;;;;5.43;2.47;;;0.40;99.90;;;;;;4931192;29;20439;-72
2021/01/30 00:51:53;;;;;;;3.90;2.38;;;0.40;99.90;;;;;;4930497;29;20083;-71
2021/01/30 00:54:20;;;;;;;5.32;2.22;;;0.40;99.90;;;;;;4930503;29;20032;-71
2021/01/30 00:56:53;;;;;;;5.78;2.55;;;0.40;99.90;;;;;;4931018;29;20029;-71
2021/01/30 00:59:19;;;;;;;4.57;1.95;;;0.40;99.90;;;;;;4930435;29;20060;-72
2021/01/30 01:01:45;;;;;;;5.47;2.80;;;0.40;99.90;;;;;;4930513;29;20044;-71
2021/01/30 01:04:11;;;;;;;4.30;2.42;;;0.40;99.90;;;;;;4929612;29;20035;-71
2021/01/30 01:06:37;;;;;;;4.70;2.08;;;0.50;99.90;;;;;;4930537;29;20040;-71
2021/01/30 01:09:05;;;;;;;8.07;2.78;;;0.50;99.90;;;;;;4930481;29;20050;-71
2021/01/30 01:11:32;;;;;;;4.88;2.42;;;0.50;99.90;;;;;;4930571;29;20035;-72
2021/01/30 01:13:57;;;;;;;4.38;2.15;;;0.50;99.90;;;;;;4930222;29;20088;-71
2021/01/30 01:16:23;;;;;;;6.70;2.78;;;0.50;99.90;;;;;;4930399;29;20032;-70
2021/01/30 01:18:49;;;;;;;6.03;2.28;;;0.60;99.90;;;;;;4930476;29;20058;-70
2021/01/30 01:21:14;;;;;;;6.00;2.35;;;0.60;99.90;;;;;;4929491;29;20050;-70
2021/01/30 01:23:44;;;;;;;5.22;2.65;;;0.60;99.90;;;;;;4930191;29;20066;-71
2021/01/30 01:26:12;;;;;;;12.48;2.78;;;0.50;99.90;;;;;;4930173;29;20040;-71
2021/01/30 01:28:37;;;;;;;4.88;2.33;;;0.60;99.90;;;;;;4929623;29;20055;-71
2021/01/30 01:31:04;;;;;;;5.45;2.30;;;0.50;99.90;;;;;;4930244;29;20020;-71
2021/01/30 01:33:31;;;;;;;4.82;2.08;;;0.60;99.90;;;;;;4930355;29;20031;-70
2021/01/30 01:35:57;;;;;;;4.07;2.08;;;0.60;99.90;;;;;;4929901;29;20095;-71
2021/01/30 01:38:22;;;;;;;4.95;2.53;;;0.50;99.90;;;;;;4929984;29;20036;-71
2021/01/30 01:40:48;;;;;;;7.30;2.78;;;0.50;99.90;;;;;;4929988;29;20063;-71
2021/01/30 01:43:17;;;;;;;5.57;2.28;;;0.50;99.90;;;;;;4929136;29;20043;-71
2021/01/30 01:45:46;;;;;;;8.55;3.33;;;0.50;99.90;;;;;;4929962;29;20028;-71
2021/01/30 01:48:29;;;;;;;11.20;2.92;;;0.50;99.90;;;;;;4929795;29;20040;-71
2021/01/30 01:50:56;;;;;;;5.15;2.88;;;0.40;99.90;;;;;;4929928;29;20143;-71
2021/01/30 01:53:36;;;;;;;4.35;2.88;;;0.40;99.90;;;;;;4929718;29;20064;-70
2021/01/30 01:56:30;;;;;;;6.70;3.38;;;0.40;99.90;;;;;;4929431;29;20024;-71
2021/01/30 01:59:01;;;;;;;5.13;2.80;;;0.40;99.90;;;;;;4927157;29;20063;-71
2021/01/30 02:01:30;;;;;;;7.28;3.03;;;0.40;99.90;;;;;;4929450;29;20044;-71
2021/01/30 02:03:57;;;;;;;5.82;2.78;;;0.40;99.90;;;;;;4929441;29;20043;-71
2021/01/30 02:06:23;;;;;;;4.25;2.47;;;0.40;99.90;;;;;;4929667;29;20031;-71
2021/01/30 02:08:50;;;;;;;5.47;2.70;;;0.40;99.90;;;;;;4912048;29;20056;-70
2021/01/30 02:11:16;;;;;;;4.82;2.67;;;0.40;99.90;;;;;;4929220;29;20465;-71
2021/01/30 02:13:52;;;;;;;6.50;2.60;;;0.40;99.90;;;;;;4929509;29;20043;-72
2021/01/30 02:16:29;;;;;;;6.22;2.88;;;0.40;99.90;;;;;;4929064;29;20133;-70
2021/01/30 02:19:19;;;;;;;10.57;3.72;;;0.40;99.90;;;;;;4929665;29;20028;-71
2021/01/30 02:21:44;;;;;;;6.43;3.30;;;0.40;99.90;;;;;;4929233;29;20056;-71
2021/01/30 02:24:29;;;;;;;8.48;3.33;;;0.50;99.90;;;;;;4928737;29;20802;-72
2021/01/30 02:26:54;;;;;;;;;;;0.50;99.90;;;;;;4912854;29;20117;-70
2021/01/30 02:29:41;;;;;;;6.90;3.05;;;0.50;99.90;;;;;;4911942;29;19931;-72
2021/01/30 02:32:23;;;;;;;4.90;2.78;;;0.50;99.90;;;;;;4928879;29;20032;-71
2021/01/30 02:35:20;;;;;;;12.27;3.90;;;0.40;99.90;;;;;;4929034;29;20068;-71
2021/01/30 02:38:05;;;;;;;10.77;3.42;;;0.40;99.90;;;;;;4928763;29;20091;-70
2021/01/30 02:40:37;;;;;;;7.85;3.28;;;0.30;99.90;;;;;;4912088;29;20036;-73
2021/01/30 02:43:20;;;;;;;10.25;3.80;;;0.30;99.90;;;;;;4929119;29;20096;-71
2021/01/30 02:46:00;;;;;;;5.70;3.40;;;0.20;99.90;;;;;;4928829;29;20393;-71
2021/01/30 02:48:30;;;;;;;6.28;3.08;;;0.20;99.90;;;;;;4929089;29;20024;-70
2021/01/30 02:51:01;;;;;;;6.32;3.28;;;0.20;99.90;;;;;;4928928;29;20389;-71
2021/01/30 02:53:32;;;;;;;9.82;4.30;;;0.20;99.90;;;;;;4928408;29;20521;-70
2021/01/30 02:56:01;;;;;;;10.02;4.47;;;0.10;99.90;;;;;;4928254;29;20039;-70
2021/01/30 02:58:33;;;;;;;8.38;3.72;;;0.20;99.90;;;;;;4928839;29;20064;-70
2021/01/30 03:00:58;;;;;;;11.40;4.18;;;0.20;99.90;;;;;;4927772;29;20039;-70
2021/01/30 03:03:25;;;;;;;7.35;4.03;;;0.20;99.90;;;;;;4928710;29;20044;-70
2021/01/30 03:05:56;;;;;;;8.15;3.90;;;0.30;99.90;;;;;;4928104;29;20028;-70
2021/01/30 03:08:34;;;;;;;9.15;3.60;;;0.30;99.90;;;;;;4928321;29;20051;-70
2021/01/30 03:11:30;;;;;;;7.55;4.32;;;0.30;99.90;;;;;;4928803;29;20032;-72
2021/01/30 03:14:02;;;;;;;10.48;3.75;;;0.30;99.90;;;;;;4928436;29;20032;-70
2021/01/30 03:16:35;;;;;;;10.77;3.97;;;0.30;99.90;;;;;;4928592;29;20032;-71
2021/01/30 03:19:08;;;;;;;11.18;4.72;;;0.20;99.90;;;;;;4928499;29;20080;-71
2021/01/30 03:21:36;;;;;;;6.73;4.20;;;0.20;99.90;;;;;;4927810;29;20080;-70
2021/01/30 03:24:04;;;;;;;10.75;4.75;;;0.10;99.90;;;;;;4928390;29;20024;-71
2021/01/30 03:26:31;;;;;;;12.32;4.82;;;0.10;99.90;;;;;;4927950;29;20047;-71
2021/01/30 03:28:57;;;;;;;13.70;5.05;;;0.10;99.90;;;;;;4911198;29;20051;-70
2021/01/30 03:31:23;;;;;;;11.93;5.18;;;0.20;99.90;;;;;;4928314;29;20036;-70
2021/01/30 03:33:49;;;;;;;14.57;5.38;;;0.20;99.90;;;;;;4928075;29;20063;-70
2021/01/30 03:36:15;;;;;;;12.18;4.85;;;0.30;99.90;;;;;;4928021;29;20024;-70
2021/01/30 03:38:41;;;;;;;10.95;4.07;;;0.30;99.90;;;;;;4927970;29;20115;-70
2021/01/30 03:41:07;;;;;;;8.65;4.25;;;0.30;99.90;;;;;;4927763;29;20040;-71
2021/01/30 03:43:34;;;;;;;15.65;5.57;;;0.30;99.90;;;;;;4928154;29;20079;-70
2021/01/30 03:45:59;;;;;;;10.93;5.45;;;0.30;99.90;;;;;;4927987;29;20040;-70
2021/01/30 03:48:25;;;;;;;21.85;5.50;;;0.30;99.90;;;;;;4927882;29;20039;-71
2021/01/30 03:50:51;;;;;;;12.02;5.05;;;0.30;99.90;;;;;;4928088;29;20024;-71
2021/01/30 03:53:17;;;;;;;11.10;5.47;;;0.30;99.90;;;;;;4927620;29;20083;-70
2021/01/30 03:55:43;;;;;;;10.85;4.90;;;0.30;99.90;;;;;;4927664;29;20032;-71
2021/01/30 03:58:09;;;;;;;12.23;5.78;;;0.20;99.90;;;;;;4928026;29;20028;-70
2021/01/30 04:00:35;;;;;;;14.20;5.03;;;0.20;99.90;;;;;;4927837;29;20111;-70
2021/01/30 04:03:00;;;;;;;10.73;4.95;;;0.10;99.90;;;;;;4927588;29;20119;-71
2021/01/30 04:05:28;;;;;;;11.88;5.30;;;0.00;99.90;;;;;;4928075;29;20456;-69
2021/01/30 04:07:56;;;;;;;11.90;6.03;;;0.10;99.90;;;;;;4914282;29;20039;-70
2021/01/30 04:10:30;;;;;;;11.38;5.43;;;0.00;99.90;;;;;;4931454;29;20036;-70
2021/01/30 04:13:01;;;;;;;13.20;5.65;;;0.00;99.90;;;;;;4932077;29;20027;-70
2021/01/30 04:15:30;;;;;;;12.52;5.47;;;0.00;99.90;;;;;;4931605;29;20029;-70
2021/01/30 04:17:56;;;;;;;15.68;5.57;;;0.00;99.90;;;;;;4931694;29;20061;-70
2021/01/30 04:20:23;;;;;;;10.77;5.70;;;0.00;99.90;;;;;;4931608;29;20031;-70
2021/01/30 04:22:49;;;;;;;9.68;5.18;;;0.10;99.90;;;;;;4930673;29;20060;-70
2021/01/30 04:25:17;;;;;;;12.65;4.95;;;0.10;99.90;;;;;;4931241;29;20529;-70
2021/01/30 04:27:43;;;;;;;10.93;4.95;;;0.10;99.90;;;;;;4931178;29;20043;-70
2021/01/30 04:30:11;;;;;;;9.77;5.03;;;0.10;99.90;;;;;;4931076;29;20032;-70
2021/01/30 04:32:37;;;;;;;14.30;5.15;;;0.10;99.90;;;;;;4931078;29;20051;-72
2021/01/30 04:35:04;;;;;;;11.25;5.25;;;0.00;99.90;;;;;;4931346;29;20083;-71
2021/01/30 04:37:30;;;;;;;9.70;4.82;;;0.00;99.90;;;;;;4931169;29;20040;-72
2021/01/30 04:39:55;;;;;;;10.68;4.88;;;0.00;99.90;;;;;;4931217;29;20156;-71
2021/01/30 04:42:37;;;;;;;15.57;5.75;;;-0.10;99.90;;;;;;4931084;29;20032;-71
2021/01/30 04:45:19;;;;;;;10.45;4.78;;;-0.20;99.90;;;;;;4931157;29;20033;-71
2021/01/30 04:48:01;;;;;;;11.20;4.13;;;-0.20;99.90;;;;;;4931146;29;20477;-71
2021/01/30 04:50:43;;;;;;;10.85;5.57;;;-0.30;99.90;;;;;;4931136;29;20034;-71
2021/01/30 04:53:37;;;;;;;14.27;5.28;;;-0.40;99.90;;;;;;4931003;29;20028;-71
2021/01/30 04:56:12;;;;;;;;;;;-0.50;99.90;;;;;;4931714;29;20028;-72
2021/01/30 04:59:02;;;;;;;15.30;4.57;;;-0.50;99.90;;;;;;4930589;29;20391;-71
2021/01/30 05:01:30;;;;;;;12.30;4.03;;;-0.60;99.90;;;;;;4931110;29;20032;-70
2021/01/30 05:04:15;;;;;;;11.10;5.18;;;-0.70;99.90;;;;;;4931099;29;20059;-70
2021/01/30 05:06:41;;;;;;;;;;;-0.70;99.90;;;;;;4930539;29;20127;-71
2021/01/30 05:09:19;;;;;;;12.65;5.03;;;-0.80;99.90;;;;;;4930495;29;19979;-71
2021/01/30 05:11:56;;;;;;;10.57;5.25;;;-0.80;99.90;;;;;;4930513;29;20032;-70
2021/01/30 05:14:26;;;;;;;11.63;5.50;;;-0.90;99.90;;;;;;4913783;29;20039;-70
2021/01/30 05:17:22;;;;;;;12.35;5.68;;;-0.90;99.90;;;;;;4930449;29;20057;-70
2021/01/30 05:19:54;;;;;;;14.88;4.88;;;-1.00;99.90;;;;;;4930301;29;20047;-70
2021/01/30 05:22:27;;;;;;;11.65;5.07;;;-1.00;99.90;;;;;;4930580;29;20115;-69
2021/01/30 05:24:53;;;;;;;9.85;4.78;;;-1.10;99.90;;;;;;4930455;29;20572;-69
2021/01/30 05:27:49;;;;;;;10.10;4.72;;;-1.10;99.90;;;;;;4930400;29;20028;-70
2021/01/30 05:30:40;;;;;;;15.48;5.50;;;-1.20;99.90;;;;;;4930540;29;20032;-69
2021/01/30 05:33:44;;;;;;;13.90;5.20;;;-1.20;99.90;;;;;;4930223;29;20080;-70
2021/01/30 05:36:34;;;;;;;9.17;5.17;;;-1.20;99.90;;;;;;4930284;29;20036;-70
2021/01/30 05:39:09;;;;;;;10.80;4.82;;;-1.30;99.90;;;;;;4929855;29;20026;-71
2021/01/30 05:42:16;;;;;;;7.85;4.22;;;-1.30;99.90;;;;;;4929973;29;20496;-70
2021/01/30 05:44:54;;;;;;;13.60;5.00;;;-1.30;99.90;;;;;;4892765;29;20044;-69
2021/01/30 05:47:23;;;;;;;11.68;5.00;;;-1.40;99.90;;;;;;4929656;29;20025;-70
2021/01/30 05:50:02;;;;;;;11.90;5.82;;;-1.40;99.90;;;;;;4930239;29;20507;-70
2021/01/30 05:52:38;;;;;;;20.38;6.00;;;-1.40;99.90;;;;;;4930339;29;20039;-70
2021/01/30 05:55:06;;;;;;;11.25;4.50;;;-1.40;99.90;;;;;;4929872;29;20028;-70
2021/01/30 05:57:32;;;;;;;12.45;6.70;;;-1.50;99.90;;;;;;4930127;29;20092;-70
2021/01/30 05:59:59;;;;;;;22.38;7.45;;;-1.50;99.90;;;;;;4929964;29;20032;-70
2021/01/30 06:02:30;;;;;;;12.10;5.32;;;-1.60;99.90;;;;;;4929760;29;20040;-69
2021/01/30 06:04:57;;;;;;;11.60;4.47;;;-1.70;99.90;;;;;;4912789;29;20038;-70
2021/01/30 06:07:22;;;;;;;9.48;4.50;;;-1.70;99.90;;;;;;4929446;29;20055;-70
2021/01/30 06:09:48;;;;;;;11.88;5.20;;;-1.80;99.90;;;;;;4929531;29;20039;-70
2021/01/30 06:12:29;;;;;;;10.52;4.43;;;-1.80;99.90;;;;;;4928930;29;20043;-70
2021/01/30 06:15:15;;;;;;;18.27;6.45;;;-1.90;99.90;;;;;;4928787;29;20039;-70
2021/01/30 06:17:42;;;;;;;12.68;5.68;;;-1.90;99.90;;;;;;4928290;29;20047;-71
2021/01/30 06:20:25;;;;;;;12.35;5.47;;;-2.00;99.90;;;;;;4929443;29;20040;-69
2021/01/30 06:23:10;;;;;;;12.17;4.40;;;-2.00;99.90;;;;;;4928468;29;20560;-71
2021/01/30 06:25:43;;;;;;;9.43;5.22;;;-2.10;99.90;;;;;;4929428;29;20092;-71
2021/01/30 06:28:29;;;;;;;12.60;5.60;;;-2.10;99.90;;;;;;4927473;29;20031;-71
2021/01/30 06:31:08;;;;;;;11.65;5.15;;;-2.10;99.90;;;;;;4929283;29;20047;-70
2021/01/30 06:33:41;;;;;;;10.32;5.03;;;-2.10;99.90;;;;;;4928134;29;20051;-69
2021/01/30 06:36:20;;;;;;;10.23;4.93;;;-2.10;99.90;;;;;;4929242;29;20024;-71
2021/01/30 06:38:50;;;;;;;12.68;5.70;;;-2.10;99.90;;;;;;4909924;29;20033;-71
2021/01/30 06:41:21;;;;;;;12.68;5.43;;;-2.10;99.90;;;;;;4910435;29;20073;-70
2021/01/30 06:43:53;;;;;;;13.73;4.72;;;-2.10;99.90;;;;;;4909956;29;20037;-70
2021/01/30 06:46:21;;;;;;;11.52;5.28;;;-2.10;99.90;;;;;;4910012;29;20060;-69
2021/01/30 06:48:50;;;;;;;13.90;5.40;;;-2.10;99.90;;;;;;4910018;29;20036;-70
2021/01/30 06:51:35;;;;;;;12.63;5.30;;;-2.20;99.90;;;;;;4894748;29;20028;-69
2021/01/30 06:54:22;;;;;;;11.57;5.43;;;-2.20;99.90;;;;;;4910132;29;20041;-70
2021/01/30 06:57:10;;;;;;;7.85;4.72;;;-2.30;99.90;;;;;;4892987;29;20051;-70
2021/01/30 06:59:49;;;;;;;9.77;4.57;;;-2.50;99.90;;;;;;4909458;29;20036;-69
2021/01/30 07:02:20;;;;;;;9.32;4.75;;;-2.50;99.90;;;;;;4912778;29;20134;-70
2021/01/30 07:05:06;;;;;;;9.98;4.97;;;-2.60;99.90;;;;;;4926860;29;20031;-70
2021/01/30 07:07:48;;;;;;;12.27;4.05;;;-2.60;99.90;;;;;;4926495;29;20426;-70
2021/01/30 07:10:27;;;;;;;10.93;4.32;;;-2.70;99.90;;;;;;4928529;29;20044;-69
2021/01/30 07:13:24;;;;;;;8.82;3.97;;;-2.70;99.90;;;;;;4927171;29;20028;-70
2021/01/30 07:16:20;;;;;;;13.35;5.68;;;-2.70;99.90;;;;;;4927792;29;20319;-70
2021/01/30 07:18:56;;;;;;;6.82;3.17;;;-2.70;99.90;;;;;;4926646;29;20036;-70
2021/01/30 07:21:26;;;;;;;6.03;4.03;;;-2.70;99.90;;;;;;4927346;29;20196;-70
2021/01/30 07:24:17;;;;;;;7.85;3.80;;;-2.70;99.90;;;;;;4928353;29;20048;-70
2021/01/30 07:26:57;;;;;;;11.93;3.72;;;-2.70;99.90;;;;;;4928092;29;20045;-70
2021/01/30 07:29:52;;;;;;;10.13;4.13;;;-2.70;99.90;;;;;;4927761;29;20028;-70
2021/01/30 07:32:38;;;;;;;9.63;3.75;;;-2.70;99.90;;;;;;4928126;29;20032;-70
2021/01/30 07:35:28;;;;;;;12.25;4.13;;;-2.70;99.90;;;;;;4927882;29;20040;-70
2021/01/30 07:38:19;;;;;;;8.10;4.55;;;-2.70;99.90;;;;;;4928156;29;20035;-69
2021/01/30 07:41:06;;;;;;;20.35;7.85;;;-2.70;99.90;;;;;;4924783;29;20084;-70
2021/01/30 07:43:39;;;;;;;19.10;7.45;;;-2.70;99.90;;;;;;4925339;29;20127;-72
2021/01/30 07:46:14;;;;;;;13.65;6.72;;;-2.50;99.90;;;;;;4924720;29;20142;-72
2021/01/30 07:48:53;;;;;;;12.88;5.82;;;-2.40;99.90;;;;;;4926184;29;20056;-72
2021/01/30 07:51:45;;;;;;;9.85;4.95;;;-2.30;99.90;;;;;;4928085;29;20075;-71
2021/01/30 07:54:11;;;;;;;9.70;5.38;;;-2.20;99.90;;;;;;4926876;29;20048;-71
2021/01/30 07:56:57;;;;;;;7.75;3.95;;;-1.90;99.90;;;;;;4927787;29;20035;-71
2021/01/30 07:59:34;;;;;;;9.73;4.07;;;-1.70;99.90;;;;;;4927910;29;20036;-71
2021/01/30 08:02:47;;;;;;;14.77;5.50;;;-1.40;99.90;;;;;;4927305;29;20094;-71
2021/01/30 08:05:38;;;;;;;7.68;4.13;;;-1.00;99.90;;;;;;4911181;29;20040;-71
2021/01/30 08:08:17;;;;;;;9.23;3.45;;;-0.60;99.90;;;;;;4927934;29;20036;-70
2021/01/30 08:11:23;;;;;;;9.63;3.58;;;-0.30;99.90;;;;;;4927946;29;20472;-70
2021/01/30 08:14:04;;;;;;;6.20;3.20;;;0.10;99.90;;;;;;4911332;29;20044;-71
2021/01/30 08:16:44;;;;;;;7.15;3.83;;;0.40;99.90;;;;;;4928107;29;20040;-71
2021/01/30 08:19:16;;;;;;;8.30;3.97;;;0.70;99.90;;;;;;4927965;29;20029;-71
2021/01/30 08:21:56;;;;;;;4.40;3.15;;;1.00;99.90;;;;;;4927227;29;20052;-70
2021/01/30 08:24:34;;;;;;;8.77;4.22;;;1.30;99.90;;;;;;4927823;29;20028;-70
2021/01/30 08:27:03;;;;;;;5.95;3.53;;;1.60;99.90;;;;;;4928030;29;20024;-70
2021/01/30 08:29:38;;;;;;;10.10;4.40;;;1.90;99.90;;;;;;4927843;29;20025;-70
2021/01/30 08:32:23;;;;;;;12.07;5.28;;;2.10;99.90;;;;;;4926730;29;20036;-71
2021/01/30 08:34:49;;;;;;;14.38;6.07;;;2.30;99.90;;;;;;4925683;29;20039;-69
2021/01/30 08:37:14;;;;;;;13.23;6.15;;;2.50;99.90;;;;;;4926154;29;20036;-70
2021/01/30 08:40:03;;;;;;;17.80;7.03;;;2.70;99.90;;;;;;4926983;29;20036;-70
2021/01/30 08:42:32;;;;;;;15.68;4.97;;;2.80;99.90;;;;;;4927044;29;20475;-68
2021/01/30 08:45:10;;;;;;;13.80;6.53;;;2.90;99.90;;;;;;4927366;29;20075;-70
2021/01/30 08:48:06;;;;;;;13.02;5.38;;;3.00;99.90;;;;;;4926804;29;20042;-69
2021/01/30 08:50:47;;;;;;;10.68;4.93;;;3.10;99.90;;;;;;4927331;29;20084;-69
2021/01/30 08:53:16;;;;;;;8.70;4.32;;;3.00;99.90;;;;;;4928130;29;20032;-69
2021/01/30 08:55:44;;;;;;;7.70;4.22;;;2.90;99.90;;;;;;4930425;29;20036;-68
2021/01/30 08:58:32;;;;;;;5.53;2.95;;;2.90;99.90;;;;;;4930442;29;20035;-69
2021/01/30 09:01:00;;;;;;;6.80;3.40;;;2.80;99.90;;;;;;4925707;29;20044;-69
2021/01/30 09:03:48;;;;;;;7.28;3.10;;;2.80;99.90;;;;;;4913506;29;20047;-68
2021/01/30 09:06:39;;;;;;;6.78;3.30;;;2.90;99.90;;;;;;4931150;29;20028;-69
2021/01/30 09:09:17;;;;;;;8.05;3.10;;;3.30;99.90;;;;;;4929876;29;20063;-71
2021/01/30 09:12:05;;;;;;;6.00;3.05;;;3.60;99.90;;;;;;4930630;29;20039;-70
2021/01/30 09:14:35;;;;;;;4.85;2.58;;;3.80;99.90;;;;;;4931048;29;20028;-71
2021/01/30 09:17:06;;;;;;;8.63;3.53;;;3.90;99.90;;;;;;4930420;29;20397;-70
2021/01/30 09:20:12;;;;;;;5.30;2.97;;;3.90;99.90;;;;;;4930754;29;20029;-70
2021/01/30 09:23:16;;;;;;;9.48;2.58;;;3.70;99.90;;;;;;4921537;29;20059;-71
2021/01/30 09:26:04;;;;;;;8.13;3.00;;;3.50;99.90;;;;;;4930513;29;20032;-70
2021/01/30 09:28:33;;;;;;;8.85;2.90;;;3.30;99.90;;;;;;4927765;29;20032;-70
2021/01/30 09:31:14;;;;;;;3.92;1.88;;;3.20;99.90;;;;;;4930493;29;20055;-69
2021/01/30 09:33:44;;;;;;;4.85;2.13;;;3.00;99.90;;;;;;4930448;29;20036;-71
2021/01/30 09:36:15;;;;;;;3.47;2.25;;;2.90;99.90;;;;;;4929978;29;20032;-69
2021/01/30 09:38:49;;;;;;;5.07;2.47;;;2.90;99.90;;;;;;4912885;29;20437;-70
2021/01/30 09:41:21;;;;;;;5.28;2.85;;;3.10;99.90;;;;;;4930018;29;20035;-70
2021/01/30 09:43:48;;;;;;;3.05;1.60;;;3.40;99.90;;;;;;4929795;29;20076;-70
2021/01/30 09:46:19;;;;;;;3.65;1.90;;;3.60;99.90;;;;;;4911803;29;20028;-69
2021/01/30 09:48:45;;;;;;;4.18;1.63;;;3.90;99.90;;;;;;4930416;29;20028;-70
2021/01/30 09:51:12;;;;;;;10.45;1.50;;;4.10;99.90;;;;;;4918729;29;20040;-70
2021/01/30 09:53:38;;;;;;;8.75;1.92;;;3.90;99.90;;;;;;4912053;29;20171;-70
2021/01/30 09:56:12;;;;;;;3.17;1.88;;;3.40;99.90;;;;;;4929498;29;20025;-71
2021/01/30 09:58:38;;;;;;;;;;;3.00;99.90;;;;;;4930247;29;20494;-70
2021/01/30 10:01:10;;;;;;;6.35;2.35;;;2.80;99.90;;;;;;4930061;29;19914;-70
2021/01/30 10:03:41;;;;;;;3.35;2.13;;;2.90;99.90;;;;;;4929408;29;20032;-69
2021/01/30 10:06:10;;;;;;;2.95;1.83;;;3.30;99.90;;;;;;4929554;29;20032;-69
2021/01/30 10:08:36;;;;;;;6.35;2.65;;;3.70;99.90;;;;;;4929116;29;20095;-69
2021/01/30 10:11:18;;;;;;;4.13;2.05;;;4.10;99.90;;;;;;4929351;29;20028;-70
2021/01/30 10:13:56;;;;;;;4.53;2.40;;;4.40;99.90;;;;;;4929409;29;20497;-69
2021/01/30 10:16:24;;;;;;;6.60;2.78;;;4.90;99.90;;;;;;4929168;29;20047;-69
2021/01/30 10:19:37;;;;;;;6.63;2.58;;;5.30;99.90;;;;;;4929157;29;20039;-69
2021/01/30 10:22:16;;;;;;;6.10;2.97;;;5.80;99.90;;;;;;4881173;29;20060;-73
2021/01/30 10:24:43;;;;;;;8.13;3.33;;;6.20;99.90;;;;;;4889082;29;20506;-69
2021/01/30 10:27:22;;;;;;;7.07;3.20;;;6.70;99.90;;;;;;4910502;29;20032;-70
2021/01/30 10:29:50;;;;;;;4.35;2.42;;;7.10;99.90;;;;;;4929591;29;20028;-69
2021/01/30 10:32:21;;;;;;;5.05;3.00;;;7.30;99.90;;;;;;4928897;29;20036;-69
2021/01/30 10:34:51;;;;;;;20.70;2.85;;;7.00;99.90;;;;;;4929368;29;20453;-70
2021/01/30 10:37:48;;;;;;;8.10;3.30;;;6.70;99.90;;;;;;4925836;29;20098;-70
2021/01/30 10:40:27;;;;;;;5.45;3.22;;;6.10;99.90;;;;;;4928576;29;20041;-70
2021/01/30 10:42:57;;;;;;;7.53;3.20;;;5.70;99.90;;;;;;4928992;29;20040;-69
2021/01/30 10:45:29;;;;;;;6.00;3.13;;;5.20;99.90;;;;;;4928242;29;20036;-69
2021/01/30 10:48:09;;;;;;;8.00;3.65;;;4.90;99.90;;;;;;4928559;29;20035;-70
2021/01/30 10:50:42;;;;;;;9.43;3.25;;;4.90;99.90;;;;;;4928716;29;20028;-70
2021/01/30 10:53:30;;;;;;;19.98;4.88;;;4.90;99.90;;;;;;4928201;29;20048;-71
2021/01/30 10:55:56;;;;;;;33.50;3.80;;;4.70;99.90;;;;;;4927176;29;20040;-69
2021/01/30 10:58:24;;;;;;;10.38;4.03;;;4.50;99.90;;;;;;4928261;29;20103;-69
2021/01/30 11:01:06;;;;;;;6.75;3.03;;;4.60;99.90;;;;;;4928293;29;20127;-69
2021/01/30 11:03:56;;;;;;;12.70;5.13;;;4.70;99.90;;;;;;4928231;29;20054;-71
2021/01/30 11:06:30;;;;;;;64.53;4.70;;;4.60;99.90;;;;;;4927650;29;20043;-69
2021/01/30 11:08:58;;;;;;;;;;;4.50;99.90;;;;;;4928546;29;20100;-69
2021/01/30 11:11:31;;;;;;;9.57;3.10;;;4.60;99.90;;;;;;4928037;29;19918;-69
2021/01/30 11:13:58;;;;;;;13.82;4.00;;;4.80;99.90;;;;;;4926545;29;20028;-69
2021/01/30 11:16:33;;;;;;;6.28;3.47;;;4.60;99.90;;;;;;4927375;29;20056;-69
2021/01/30 11:18:59;;;;;;;18.00;3.22;;;4.40;99.90;;;;;;4928997;29;20060;-70
2021/01/30 11:21:43;;;;;;;10.48;4.55;;;4.30;99.90;;;;;;4926818;29;20048;-70
2021/01/30 11:24:30;;;;;;;6.45;3.78;;;4.10;99.90;;;;;;4910132;29;20457;-71
2021/01/30 11:26:56;;;;;;;7.22;3.45;;;3.90;99.90;;;;;;4910414;29;20039;-70
2021/01/30 11:29:44;;;;;;;8.27;2.80;;;3.90;99.90;;;;;;4910222;29;20028;-71
2021/01/30 11:32:20;;;;;;;5.75;3.05;;;4.10;99.90;;;;;;4910504;29;20047;-70
2021/01/30 11:34:56;;;;;;;8.20;3.50;;;4.40;99.90;;;;;;4926677;29;20028;-71
2021/01/30 11:37:22;;;;;;;9.65;3.63;;;4.90;99.90;;;;;;4927135;29;20092;-70
2021/01/30 11:39:48;;;;;;;6.35;2.97;;;5.40;99.90;;;;;;4927232;29;20492;-70
2021/01/30 11:42:14;;;;;;;4.97;2.78;;;5.90;99.90;;;;;;4927073;29;20091;-70
2021/01/30 11:44:39;;;;;;;5.50;2.97;;;6.30;99.90;;;;;;4927230;29;20099;-70
2021/01/30 11:47:05;;;;;;;9.05;2.75;;;6.40;99.90;;;;;;4927591;29;20028;-71
2021/01/30 11:49:34;;;;;;;11.43;2.45;;;6.10;99.90;;;;;;4927227;29;20039;-70
2021/01/30 11:52:00;;;;;;;53.05;4.80;;;5.50;99.90;;;;;;4927551;29;20087;-71
2021/01/30 11:54:25;;;;;;;9.27;3.53;;;4.90;99.90;;;;;;4927103;29;20116;-69
2021/01/30 11:56:51;;;;;;;7.25;3.47;;;4.30;99.90;;;;;;4926710;29;20040;-69
2021/01/30 11:59:16;;;;;;;7.50;3.60;;;3.90;99.90;;;;;;4927353;29;20036;-69
2021/01/30 12:01:42;;;;;;;38.78;4.60;;;3.50;99.90;;;;;;4927243;29;20071;-69
2021/01/30 12:04:10;;;;;;;89.18;4.65;;;3.10;99.90;;;;;;4927558;29;20059;-70
2021/01/30 12:06:35;;;;;;;11.68;5.15;;;2.80;99.90;;;;;;4927872;29;20056;-70
2021/01/30 12:09:01;;;;;;;8.38;4.60;;;2.40;99.90;;;;;;4927473;29;20036;-70
2021/01/30 12:11:27;;;;;;;19.85;5.18;;;2.20;99.90;;;;;;4910445;29;20217;-69
2021/01/30 12:13:54;;;;;;;36.20;7.38;;;2.20;99.90;;;;;;4927427;29;20039;-69
2021/01/30 12:16:23;;;;;;;21.67;5.65;;;2.20;99.90;;;;;;4926750;29;20119;-69
2021/01/30 12:18:49;;;;;;;7.55;3.55;;;2.50;99.90;;;;;;4910433;29;20035;-69
2021/01/30 12:21:15;;;;;;;16.58;5.35;;;2.60;99.90;;;;;;4926128;29;20056;-69
2021/01/30 12:23:40;;;;;;;26.70;5.22;;;2.70;99.90;;;;;;4926957;29;20488;-69
2021/01/30 12:26:09;;;;;;;10.52;4.28;;;2.90;99.90;;;;;;4927629;29;20088;-69
2021/01/30 12:28:35;;;;;;;9.43;4.50;;;3.20;99.90;;;;;;4931174;29;20111;-70
2021/01/30 12:31:03;;;;;;;12.63;5.75;;;3.50;99.90;;;;;;4914087;29;20024;-70
2021/01/30 12:33:29;;;;;;;15.65;8.32;;;3.60;99.90;;;;;;4931389;29;20032;-70
2021/01/30 12:35:55;;;;;;;12.82;6.22;;;3.80;99.90;;;;;;4931231;29;20111;-69
2021/01/30 12:38:21;;;;;;;12.18;5.68;;;4.00;99.90;;;;;;4930835;29;20032;-70
2021/01/30 12:40:50;;;;;;;12.68;5.90;;;4.50;99.90;;;;;;4931443;29;20039;-71
2021/01/30 12:43:19;;;;;;;11.00;5.45;;;4.80;99.90;;;;;;4930700;29;20036;-71
2021/01/30 12:45:46;;;;;;;8.15;4.68;;;4.90;99.90;;;;;;4913910;29;20052;-70
2021/01/30 12:48:11;;;;;;;9.75;4.70;;;4.90;99.90;;;;;;4930819;29;20024;-72
2021/01/30 12:50:38;;;;;;;11.52;4.85;;;5.10;99.90;;;;;;4912445;29;20044;-71
2021/01/30 12:53:04;;;;;;;7.97;4.00;;;5.20;99.90;;;;;;4924220;29;20092;-71
2021/01/30 12:55:30;;;;;;;7.30;4.28;;;5.60;99.90;;;;;;4913774;29;20071;-71
2021/01/30 12:57:56;;;;;;;11.02;4.82;;;6.00;99.90;;;;;;4930652;29;20038;-71
2021/01/30 13:00:27;;;;;;;5.95;3.80;;;6.50;99.90;;;;;;4913886;29;20032;-71
2021/01/30 13:02:53;;;;;;;9.20;4.20;;;7.10;99.90;;;;;;4930704;29;20077;-71
2021/01/30 13:05:20;;;;;;;9.63;3.50;;;7.60;99.90;;;;;;4930475;29;20099;-71
2021/01/30 13:07:46;;;;;;;10.18;3.80;;;8.10;99.90;;;;;;4930796;29;20050;-72
2021/01/30 13:10:16;;;;;;;5.22;3.72;;;8.60;99.90;;;;;;4930429;29;20020;-70
2021/01/30 13:12:42;;;;;;;5.95;3.40;;;9.00;99.90;;;;;;4930471;29;20031;-71
2021/01/30 13:15:09;;;;;;;9.63;4.47;;;8.90;99.90;;;;;;4930288;29;20040;-71
2021/01/30 13:17:36;;;;;;;6.30;3.65;;;8.50;99.90;;;;;;4929606;29;20032;-71
2021/01/30 13:20:04;;;;;;;10.05;3.88;;;7.90;99.90;;;;;;4930092;29;20021;-71
2021/01/30 13:22:33;;;;;;;6.47;3.80;;;7.40;99.90;;;;;;4930125;29;20075;-70